NZOH/OHA METAR and TAF weather

Enter ICAO airport designator
Station Type Date Time Source
NZOH METAR 2019/12/07 19:00 UTC NOAA

NZOH 071900Z 34007KT 10KM SHRA FEW025 BKN040 15/14 Q1014 TEMPO 4000 SHRA 32018G30KT FEW020TCU


Station Type Date Time Source
NZOH Decoded METAR 2019/12/07 19:00 UTC NOAA

Ohakea, New Zealand (NZOH) 40-12S 175-22E 52M
Dec 07, 2019 - 02:00 PM EST / 2019.12.07 1900 UTC
Wind: from the NNW (340 degrees) at 8 MPH (7 KT):0
Sky conditions: mostly cloudy
Weather: rain showers; Towering cumulus clouds observed
Temperature: 59 F (15 C)
Dew Point: 57 F (14 C)
Relative Humidity: 93%
Pressure (altimeter): 29.94 in. Hg (1014 hPa)
ob: NZOH 071900Z 34007KT 10KM SHRA FEW025 BKN040 15/14 Q1014 TEMPO 4000 SHRA 32018G30KT FEW020TCU
cycle: 19

Station Type Date Time Source
NZOH TAF 2007/12/14 04:59 UTC NOAA

TAF NZOH 140459Z 140606 11020KT 30KM SCT080 BECMH 0911 03008KT
BECMG 2224 27012KT

Example: see airport list